Terminal Aerodrome Forecast
Issued by NWS

Home | Current Version | Previous Version | Text Only | Print | Product List | Glossary On
Versions: 1 2 3 4 5 6 7 8 9 10 11 12 13
000
FTUS46 KHNX 300546
TAFMCE
TAF
KMCE 300546Z 3006/3106 30007KT P6SM SKC
     FM300800 VRB04KT P6SM FEW150 SCT200
     FM301800 31008KT P6SM SCT150 BKN200=

USA.gov is the U.S. government's official web portal to all federal, state and local government web resources and services.